sensor_id;sensor_type;location;lat;lon;timestamp;P1;durP1;ratioP1;P2;durP2;ratioP2
80963;SDS011;70425;59.322;13.486;2023-11-19T01:41:04;6.83;;;4.07;;
80963;SDS011;70425;59.322;13.486;2023-11-19T02:14:02;3.23;;;1.87;;
80963;SDS011;70425;59.322;13.486;2023-11-19T02:16:51;1.53;;;0.90;;
80963;SDS011;70425;59.322;13.486;2023-11-19T02:19:39;7.07;;;1.90;;
80963;SDS011;70425;59.322;13.486;2023-11-19T02:22:28;2.70;;;1.67;;
80963;SDS011;70425;59.322;13.486;2023-11-19T02:25:19;1.70;;;1.33;;
80963;SDS011;70425;59.322;13.486;2023-11-19T02:40:26;6.93;;;3.03;;
80963;SDS011;70425;59.322;13.486;2023-11-19T02:43:15;10.90;;;3.40;;
80963;SDS011;70425;59.322;13.486;2023-11-19T03:04:46;6.33;;;2.53;;
80963;SDS011;70425;59.322;13.486;2023-11-19T03:11:53;8.50;;;2.90;;
80963;SDS011;70425;59.322;13.486;2023-11-19T03:14:42;5.73;;;1.93;;
80963;SDS011;70425;59.322;13.486;2023-11-19T03:17:32;7.57;;;3.03;;
80963;SDS011;70425;59.322;13.486;2023-11-19T03:20:25;4.90;;;2.80;;
80963;SDS011;70425;59.322;13.486;2023-11-19T03:23:16;5.87;;;1.57;;
80963;SDS011;70425;59.322;13.486;2023-11-19T03:26:06;4.23;;;2.30;;
80963;SDS011;70425;59.322;13.486;2023-11-19T03:28:55;10.00;;;2.63;;
80963;SDS011;70425;59.322;13.486;2023-11-19T03:31:44;9.67;;;3.13;;
80963;SDS011;70425;59.322;13.486;2023-11-19T03:34:32;6.17;;;2.80;;
80963;SDS011;70425;59.322;13.486;2023-11-19T03:37:21;3.63;;;1.70;;
80963;SDS011;70425;59.322;13.486;2023-11-19T03:40:10;9.00;;;2.70;;
80963;SDS011;70425;59.322;13.486;2023-11-19T03:43:00;4.90;;;2.37;;
80963;SDS011;70425;59.322;13.486;2023-11-19T03:49:40;6.27;;;2.33;;
80963;SDS011;70425;59.322;13.486;2023-11-19T03:52:30;5.70;;;2.23;;
80963;SDS011;70425;59.322;13.486;2023-11-19T03:55:19;5.30;;;1.90;;
80963;SDS011;70425;59.322;13.486;2023-11-19T03:58:08;2.43;;;1.53;;
80963;SDS011;70425;59.322;13.486;2023-11-19T04:00:57;8.63;;;2.73;;
80963;SDS011;70425;59.322;13.486;2023-11-19T04:22:35;3.93;;;2.47;;
80963;SDS011;70425;59.322;13.486;2023-11-19T04:25:24;8.17;;;2.57;;
80963;SDS011;70425;59.322;13.486;2023-11-19T04:43:26;4.57;;;2.67;;
80963;SDS011;70425;59.322;13.486;2023-11-19T04:57:06;3.50;;;1.87;;
80963;SDS011;70425;59.322;13.486;2023-11-19T05:11:34;4.03;;;2.57;;
80963;SDS011;70425;59.322;13.486;2023-11-19T05:17:17;2.97;;;1.67;;
80963;SDS011;70425;59.322;13.486;2023-11-19T05:20:06;3.27;;;2.20;;
80963;SDS011;70425;59.322;13.486;2023-11-19T05:22:58;1.53;;;1.27;;
80963;SDS011;70425;59.322;13.486;2023-11-19T05:25:46;1.77;;;1.10;;
80963;SDS011;70425;59.322;13.486;2023-11-19T05:28:35;3.00;;;1.93;;
80963;SDS011;70425;59.322;13.486;2023-11-19T05:31:25;6.93;;;2.50;;
80963;SDS011;70425;59.322;13.486;2023-11-19T05:34:14;5.57;;;1.63;;
80963;SDS011;70425;59.322;13.486;2023-11-19T05:37:03;4.17;;;2.30;;
80963;SDS011;70425;59.322;13.486;2023-11-19T05:39:52;3.77;;;1.37;;
80963;SDS011;70425;59.322;13.486;2023-11-19T05:42:41;3.10;;;1.37;;
80963;SDS011;70425;59.322;13.486;2023-11-19T05:55:30;4.27;;;2.60;;
80963;SDS011;70425;59.322;13.486;2023-11-19T05:58:20;4.37;;;1.63;;
80963;SDS011;70425;59.322;13.486;2023-11-19T06:01:14;7.53;;;2.70;;
80963;SDS011;70425;59.322;13.486;2023-11-19T06:17:08;3.20;;;1.80;;
80963;SDS011;70425;59.322;13.486;2023-11-19T06:22:40;2.70;;;1.60;;
80963;SDS011;70425;59.322;13.486;2023-11-19T06:25:30;3.80;;;2.03;;
80963;SDS011;70425;59.322;13.486;2023-11-19T06:28:18;4.37;;;1.90;;
80963;SDS011;70425;59.322;13.486;2023-11-19T06:31:08;5.23;;;2.33;;
80963;SDS011;70425;59.322;13.486;2023-11-19T06:36:40;1.83;;;1.33;;
80963;SDS011;70425;59.322;13.486;2023-11-19T06:39:29;2.53;;;1.40;;
80963;SDS011;70425;59.322;13.486;2023-11-19T06:42:17;2.77;;;1.17;;
80963;SDS011;70425;59.322;13.486;2023-11-19T06:45:06;2.83;;;1.83;;
80963;SDS011;70425;59.322;13.486;2023-11-19T06:50:43;4.40;;;1.47;;
80963;SDS011;70425;59.322;13.486;2023-11-19T06:53:32;1.77;;;1.50;;
80963;SDS011;70425;59.322;13.486;2023-11-19T06:56:21;1.67;;;1.20;;
80963;SDS011;70425;59.322;13.486;2023-11-19T06:59:13;15.17;;;2.20;;
80963;SDS011;70425;59.322;13.486;2023-11-19T07:02:02;1.57;;;1.23;;
80963;SDS011;70425;59.322;13.486;2023-11-19T07:04:51;0.90;;;0.90;;
80963;SDS011;70425;59.322;13.486;2023-11-19T07:07:40;1.80;;;1.23;;
80963;SDS011;70425;59.322;13.486;2023-11-19T07:24:38;5.20;;;3.00;;
80963;SDS011;70425;59.322;13.486;2023-11-19T07:43:04;8.10;;;3.97;;
80963;SDS011;70425;59.322;13.486;2023-11-19T07:45:53;4.60;;;2.60;;
80963;SDS011;70425;59.322;13.486;2023-11-19T08:05:59;7.00;;;3.10;;
80963;SDS011;70425;59.322;13.486;2023-11-19T08:08:49;5.53;;;2.30;;
80963;SDS011;70425;59.322;13.486;2023-11-19T08:11:38;4.47;;;2.40;;
80963;SDS011;70425;59.322;13.486;2023-11-19T08:14:27;3.17;;;1.80;;
80963;SDS011;70425;59.322;13.486;2023-11-19T08:17:16;4.63;;;2.47;;
80963;SDS011;70425;59.322;13.486;2023-11-19T08:36:39;6.77;;;2.57;;
80963;SDS011;70425;59.322;13.486;2023-11-19T08:39:29;0.97;;;0.73;;
80963;SDS011;70425;59.322;13.486;2023-11-19T08:42:18;2.77;;;1.70;;
80963;SDS011;70425;59.322;13.486;2023-11-19T08:45:08;3.50;;;2.30;;
80963;SDS011;70425;59.322;13.486;2023-11-19T08:50:41;5.90;;;2.53;;
80963;SDS011;70425;59.322;13.486;2023-11-19T08:53:30;1.40;;;1.27;;
80963;SDS011;70425;59.322;13.486;2023-11-19T08:59:42;7.73;;;3.07;;
80963;SDS011;70425;59.322;13.486;2023-11-19T09:02:31;1.93;;;1.43;;
80963;SDS011;70425;59.322;13.486;2023-11-19T09:05:20;5.77;;;2.90;;
80963;SDS011;70425;59.322;13.486;2023-11-19T09:08:09;5.33;;;3.03;;
80963;SDS011;70425;59.322;13.486;2023-11-19T09:10:58;3.10;;;2.20;;
80963;SDS011;70425;59.322;13.486;2023-11-19T09:13:46;9.27;;;4.03;;
80963;SDS011;70425;59.322;13.486;2023-11-19T09:16:35;6.50;;;2.90;;
80963;SDS011;70425;59.322;13.486;2023-11-19T09:19:24;5.43;;;2.93;;
80963;SDS011;70425;59.322;13.486;2023-11-19T09:22:13;2.20;;;1.47;;
80963;SDS011;70425;59.322;13.486;2023-11-19T09:25:03;6.17;;;3.03;;
80963;SDS011;70425;59.322;13.486;2023-11-19T09:27:52;1.73;;;1.63;;
80963;SDS011;70425;59.322;13.486;2023-11-19T09:30:40;8.73;;;3.77;;
80963;SDS011;70425;59.322;13.486;2023-11-19T09:33:29;11.47;;;4.00;;
80963;SDS011;70425;59.322;13.486;2023-11-19T09:36:17;8.70;;;3.87;;
80963;SDS011;70425;59.322;13.486;2023-11-19T09:39:06;5.50;;;3.60;;
80963;SDS011;70425;59.322;13.486;2023-11-19T09:41:55;8.50;;;2.93;;
80963;SDS011;70425;59.322;13.486;2023-11-19T09:44:44;9.03;;;3.83;;
80963;SDS011;70425;59.322;13.486;2023-11-19T09:47:39;12.73;;;4.60;;
80963;SDS011;70425;59.322;13.486;2023-11-19T09:53:36;3.93;;;2.30;;
80963;SDS011;70425;59.322;13.486;2023-11-19T10:10:05;11.97;;;6.80;;
80963;SDS011;70425;59.322;13.486;2023-11-19T10:22:36;10.37;;;5.00;;
80963;SDS011;70425;59.322;13.486;2023-11-19T10:25:25;9.23;;;4.30;;
80963;SDS011;70425;59.322;13.486;2023-11-19T10:28:15;5.33;;;3.27;;
80963;SDS011;70425;59.322;13.486;2023-11-19T10:31:04;6.67;;;2.73;;
80963;SDS011;70425;59.322;13.486;2023-11-19T10:33:53;7.93;;;3.67;;
80963;SDS011;70425;59.322;13.486;2023-11-19T10:36:42;7.47;;;3.80;;
80963;SDS011;70425;59.322;13.486;2023-11-19T10:39:34;9.97;;;3.43;;
80963;SDS011;70425;59.322;13.486;2023-11-19T10:42:42;9.03;;;3.47;;
80963;SDS011;70425;59.322;13.486;2023-11-19T10:45:31;4.50;;;2.87;;
80963;SDS011;70425;59.322;13.486;2023-11-19T10:48:20;3.93;;;2.40;;
80963;SDS011;70425;59.322;13.486;2023-11-19T10:51:09;6.30;;;3.40;;
80963;SDS011;70425;59.322;13.486;2023-11-19T10:54:02;7.73;;;3.60;;
80963;SDS011;70425;59.322;13.486;2023-11-19T11:10:51;6.70;;;3.47;;
80963;SDS011;70425;59.322;13.486;2023-11-19T11:13:44;6.87;;;3.50;;
80963;SDS011;70425;59.322;13.486;2023-11-19T11:16:35;8.13;;;3.80;;
80963;SDS011;70425;59.322;13.486;2023-11-19T11:19:25;9.37;;;2.60;;
80963;SDS011;70425;59.322;13.486;2023-11-19T11:22:13;5.53;;;3.00;;
80963;SDS011;70425;59.322;13.486;2023-11-19T11:36:45;7.10;;;3.73;;
80963;SDS011;70425;59.322;13.486;2023-11-19T11:39:46;9.10;;;3.63;;
80963;SDS011;70425;59.322;13.486;2023-11-19T11:42:37;6.43;;;3.03;;
80963;SDS011;70425;59.322;13.486;2023-11-19T11:45:38;7.07;;;3.43;;
80963;SDS011;70425;59.322;13.486;2023-11-19T11:48:29;6.33;;;3.40;;
80963;SDS011;70425;59.322;13.486;2023-11-19T11:51:18;7.50;;;3.57;;
80963;SDS011;70425;59.322;13.486;2023-11-19T11:54:06;9.00;;;3.47;;
80963;SDS011;70425;59.322;13.486;2023-11-19T11:57:03;4.90;;;2.63;;
80963;SDS011;70425;59.322;13.486;2023-11-19T11:59:53;8.33;;;4.00;;
80963;SDS011;70425;59.322;13.486;2023-11-19T12:02:42;17.03;;;4.30;;
80963;SDS011;70425;59.322;13.486;2023-11-19T12:05:32;6.43;;;2.77;;
80963;SDS011;70425;59.322;13.486;2023-11-19T12:08:25;7.27;;;4.20;;
80963;SDS011;70425;59.322;13.486;2023-11-19T12:11:18;10.30;;;3.90;;
80963;SDS011;70425;59.322;13.486;2023-11-19T12:27:35;6.33;;;3.60;;
80963;SDS011;70425;59.322;13.486;2023-11-19T12:42:08;12.93;;;5.43;;
80963;SDS011;70425;59.322;13.486;2023-11-19T12:44:58;14.40;;;5.17;;
80963;SDS011;70425;59.322;13.486;2023-11-19T12:50:51;8.00;;;3.60;;
80963;SDS011;70425;59.322;13.486;2023-11-19T12:53:48;11.43;;;3.70;;
80963;SDS011;70425;59.322;13.486;2023-11-19T12:56:38;6.57;;;3.10;;
80963;SDS011;70425;59.322;13.486;2023-11-19T12:59:30;10.03;;;2.73;;
80963;SDS011;70425;59.322;13.486;2023-11-19T13:02:19;11.13;;;3.20;;
80963;SDS011;70425;59.322;13.486;2023-11-19T13:05:20;9.90;;;4.77;;
80963;SDS011;70425;59.322;13.486;2023-11-19T13:23:40;13.60;;;4.23;;
80963;SDS011;70425;59.322;13.486;2023-11-19T13:40:45;8.47;;;3.80;;
80963;SDS011;70425;59.322;13.486;2023-11-19T14:06:17;12.90;;;4.53;;
80963;SDS011;70425;59.322;13.486;2023-11-19T14:25:13;8.87;;;4.30;;
80963;SDS011;70425;59.322;13.486;2023-11-19T14:30:55;8.33;;;3.80;;
80963;SDS011;70425;59.322;13.486;2023-11-19T14:33:43;8.87;;;4.07;;
80963;SDS011;70425;59.322;13.486;2023-11-19T14:36:31;9.03;;;3.80;;
80963;SDS011;70425;59.322;13.486;2023-11-19T14:39:20;11.17;;;3.80;;
80963;SDS011;70425;59.322;13.486;2023-11-19T14:42:09;6.40;;;3.17;;
80963;SDS011;70425;59.322;13.486;2023-11-19T14:44:57;13.07;;;3.53;;
80963;SDS011;70425;59.322;13.486;2023-11-19T14:51:31;17.73;;;4.93;;
80963;SDS011;70425;59.322;13.486;2023-11-19T14:54:21;8.90;;;4.57;;
80963;SDS011;70425;59.322;13.486;2023-11-19T14:57:12;8.17;;;4.73;;
80963;SDS011;70425;59.322;13.486;2023-11-19T15:00:01;26.67;;;9.93;;
80963;SDS011;70425;59.322;13.486;2023-11-19T15:02:53;10.80;;;4.50;;
80963;SDS011;70425;59.322;13.486;2023-11-19T15:05:42;12.63;;;5.27;;
80963;SDS011;70425;59.322;13.486;2023-11-19T15:08:32;13.10;;;4.80;;
80963;SDS011;70425;59.322;13.486;2023-11-19T15:14:07;13.00;;;5.60;;
80963;SDS011;70425;59.322;13.486;2023-11-19T15:16:55;17.07;;;5.57;;
80963;SDS011;70425;59.322;13.486;2023-11-19T15:19:44;17.97;;;5.70;;
80963;SDS011;70425;59.322;13.486;2023-11-19T15:22:33;8.53;;;4.33;;
80963;SDS011;70425;59.322;13.486;2023-11-19T15:25:22;16.47;;;6.20;;
80963;SDS011;70425;59.322;13.486;2023-11-19T15:31:18;18.20;;;6.43;;
80963;SDS011;70425;59.322;13.486;2023-11-19T15:34:07;16.13;;;6.57;;
80963;SDS011;70425;59.322;13.486;2023-11-19T15:36:56;22.70;;;8.00;;
80963;SDS011;70425;59.322;13.486;2023-11-19T15:39:47;19.83;;;8.40;;
80963;SDS011;70425;59.322;13.486;2023-11-19T15:42:45;22.87;;;8.30;;
80963;SDS011;70425;59.322;13.486;2023-11-19T15:45:34;33.20;;;8.87;;
80963;SDS011;70425;59.322;13.486;2023-11-19T16:15:47;24.70;;;9.00;;
80963;SDS011;70425;59.322;13.486;2023-11-19T16:18:36;16.80;;;7.53;;
80963;SDS011;70425;59.322;13.486;2023-11-19T16:21:25;17.90;;;7.07;;
80963;SDS011;70425;59.322;13.486;2023-11-19T16:24:13;6.27;;;2.93;;
80963;SDS011;70425;59.322;13.486;2023-11-19T16:27:04;12.80;;;3.00;;
80963;SDS011;70425;59.322;13.486;2023-11-19T16:29:53;5.50;;;3.23;;
80963;SDS011;70425;59.322;13.486;2023-11-19T16:32:51;11.80;;;5.37;;
80963;SDS011;70425;59.322;13.486;2023-11-19T16:35:42;11.33;;;5.57;;
80963;SDS011;70425;59.322;13.486;2023-11-19T16:38:31;12.23;;;4.50;;
80963;SDS011;70425;59.322;13.486;2023-11-19T16:41:19;17.90;;;7.00;;
80963;SDS011;70425;59.322;13.486;2023-11-19T16:55:17;22.20;;;8.80;;
80963;SDS011;70425;59.322;13.486;2023-11-19T17:00:46;8.13;;;4.50;;
80963;SDS011;70425;59.322;13.486;2023-11-19T17:03:35;6.80;;;3.50;;
80963;SDS011;70425;59.322;13.486;2023-11-19T17:06:24;11.20;;;5.23;;
80963;SDS011;70425;59.322;13.486;2023-11-19T17:09:12;15.27;;;6.27;;
80963;SDS011;70425;59.322;13.486;2023-11-19T17:12:01;16.67;;;6.37;;
80963;SDS011;70425;59.322;13.486;2023-11-19T17:14:50;14.67;;;5.90;;
80963;SDS011;70425;59.322;13.486;2023-11-19T17:17:40;13.97;;;6.03;;
80963;SDS011;70425;59.322;13.486;2023-11-19T17:20:29;36.90;;;11.13;;
80963;SDS011;70425;59.322;13.486;2023-11-19T17:23:17;26.20;;;8.90;;
80963;SDS011;70425;59.322;13.486;2023-11-19T17:26:05;16.10;;;6.20;;
80963;SDS011;70425;59.322;13.486;2023-11-19T17:28:54;14.40;;;5.80;;
80963;SDS011;70425;59.322;13.486;2023-11-19T17:31:44;10.17;;;3.63;;
80963;SDS011;70425;59.322;13.486;2023-11-19T17:34:32;11.03;;;4.13;;
80963;SDS011;70425;59.322;13.486;2023-11-19T17:37:21;14.07;;;6.03;;
80963;SDS011;70425;59.322;13.486;2023-11-19T17:40:10;15.40;;;5.97;;
80963;SDS011;70425;59.322;13.486;2023-11-19T17:43:00;28.27;;;9.67;;
80963;SDS011;70425;59.322;13.486;2023-11-19T17:45:50;4.97;;;2.97;;
80963;SDS011;70425;59.322;13.486;2023-11-19T17:48:40;23.23;;;8.07;;
80963;SDS011;70425;59.322;13.486;2023-11-19T17:51:29;18.23;;;6.93;;
80963;SDS011;70425;59.322;13.486;2023-11-19T17:54:17;15.83;;;6.70;;
80963;SDS011;70425;59.322;13.486;2023-11-19T17:57:06;7.73;;;4.23;;
80963;SDS011;70425;59.322;13.486;2023-11-19T17:59:47;10.90;;;5.10;;
80963;SDS011;70425;59.322;13.486;2023-11-19T18:02:37;13.33;;;4.87;;
80963;SDS011;70425;59.322;13.486;2023-11-19T18:05:18;5.33;;;2.80;;
80963;SDS011;70425;59.322;13.486;2023-11-19T18:08:06;14.73;;;6.77;;
80963;SDS011;70425;59.322;13.486;2023-11-19T18:10:56;7.40;;;4.47;;
80963;SDS011;70425;59.322;13.486;2023-11-19T18:13:45;15.40;;;5.03;;
80963;SDS011;70425;59.322;13.486;2023-11-19T18:16:34;12.97;;;5.90;;
80963;SDS011;70425;59.322;13.486;2023-11-19T18:19:23;5.60;;;3.03;;
80963;SDS011;70425;59.322;13.486;2023-11-19T18:22:12;15.40;;;6.30;;
80963;SDS011;70425;59.322;13.486;2023-11-19T18:25:01;13.50;;;5.40;;
80963;SDS011;70425;59.322;13.486;2023-11-19T18:27:40;15.00;;;6.70;;
80963;SDS011;70425;59.322;13.486;2023-11-19T18:30:28;10.37;;;4.30;;
80963;SDS011;70425;59.322;13.486;2023-11-19T18:33:17;7.00;;;2.50;;
80963;SDS011;70425;59.322;13.486;2023-11-19T18:36:07;14.80;;;6.27;;
80963;SDS011;70425;59.322;13.486;2023-11-19T18:38:57;14.90;;;5.57;;
80963;SDS011;70425;59.322;13.486;2023-11-19T18:41:39;11.07;;;4.93;;
80963;SDS011;70425;59.322;13.486;2023-11-19T18:44:27;11.60;;;4.80;;
80963;SDS011;70425;59.322;13.486;2023-11-19T18:47:11;17.57;;;8.03;;
80963;SDS011;70425;59.322;13.486;2023-11-19T18:50:00;7.93;;;3.87;;
80963;SDS011;70425;59.322;13.486;2023-11-19T18:52:48;13.63;;;5.40;;
80963;SDS011;70425;59.322;13.486;2023-11-19T18:55:37;8.00;;;3.63;;
80963;SDS011;70425;59.322;13.486;2023-11-19T18:58:25;9.67;;;3.93;;
80963;SDS011;70425;59.322;13.486;2023-11-19T19:01:14;5.67;;;2.17;;
80963;SDS011;70425;59.322;13.486;2023-11-19T19:04:04;16.17;;;6.93;;
80963;SDS011;70425;59.322;13.486;2023-11-19T19:06:53;20.17;;;7.37;;
80963;SDS011;70425;59.322;13.486;2023-11-19T19:09:41;15.57;;;6.57;;
80963;SDS011;70425;59.322;13.486;2023-11-19T19:12:30;13.40;;;5.27;;
80963;SDS011;70425;59.322;13.486;2023-11-19T19:15:20;13.30;;;5.30;;
80963;SDS011;70425;59.322;13.486;2023-11-19T19:20:50;35.33;;;9.77;;
80963;SDS011;70425;59.322;13.486;2023-11-19T19:23:38;33.63;;;10.60;;
80963;SDS011;70425;59.322;13.486;2023-11-19T19:26:27;16.87;;;7.53;;
80963;SDS011;70425;59.322;13.486;2023-11-19T19:29:16;18.80;;;7.10;;
80963;SDS011;70425;59.322;13.486;2023-11-19T19:32:05;18.77;;;7.57;;
80963;SDS011;70425;59.322;13.486;2023-11-19T19:34:54;7.03;;;3.47;;
80963;SDS011;70425;59.322;13.486;2023-11-19T19:37:43;13.33;;;7.10;;
80963;SDS011;70425;59.322;13.486;2023-11-19T19:40:32;16.03;;;6.63;;
80963;SDS011;70425;59.322;13.486;2023-11-19T19:43:21;9.13;;;4.60;;
80963;SDS011;70425;59.322;13.486;2023-11-19T19:46:10;11.57;;;4.37;;
80963;SDS011;70425;59.322;13.486;2023-11-19T19:48:59;10.57;;;5.13;;
80963;SDS011;70425;59.322;13.486;2023-11-19T19:51:48;13.80;;;6.50;;
80963;SDS011;70425;59.322;13.486;2023-11-19T19:54:29;13.27;;;6.30;;
80963;SDS011;70425;59.322;13.486;2023-11-19T19:57:20;19.10;;;7.13;;
80963;SDS011;70425;59.322;13.486;2023-11-19T20:00:10;12.13;;;4.80;;
80963;SDS011;70425;59.322;13.486;2023-11-19T20:05:39;11.60;;;5.30;;
80963;SDS011;70425;59.322;13.486;2023-11-19T20:08:30;9.53;;;3.37;;
80963;SDS011;70425;59.322;13.486;2023-11-19T20:11:19;7.60;;;3.43;;
80963;SDS011;70425;59.322;13.486;2023-11-19T20:14:07;6.97;;;3.10;;
80963;SDS011;70425;59.322;13.486;2023-11-19T20:16:56;6.50;;;3.70;;
80963;SDS011;70425;59.322;13.486;2023-11-19T20:19:44;12.60;;;5.97;;
80963;SDS011;70425;59.322;13.486;2023-11-19T20:22:33;9.90;;;4.47;;
80963;SDS011;70425;59.322;13.486;2023-11-19T20:25:22;16.80;;;7.13;;
80963;SDS011;70425;59.322;13.486;2023-11-19T20:28:11;10.83;;;4.47;;
80963;SDS011;70425;59.322;13.486;2023-11-19T20:31:00;10.67;;;4.73;;
80963;SDS011;70425;59.322;13.486;2023-11-19T20:33:49;12.63;;;6.37;;
80963;SDS011;70425;59.322;13.486;2023-11-19T20:36:38;14.23;;;6.23;;
80963;SDS011;70425;59.322;13.486;2023-11-19T20:42:11;14.30;;;6.33;;
80963;SDS011;70425;59.322;13.486;2023-11-19T20:44:59;16.20;;;7.67;;
80963;SDS011;70425;59.322;13.486;2023-11-19T20:47:39;16.53;;;6.80;;
80963;SDS011;70425;59.322;13.486;2023-11-19T20:50:29;13.17;;;5.87;;
80963;SDS011;70425;59.322;13.486;2023-11-19T20:53:20;14.27;;;6.80;;
80963;SDS011;70425;59.322;13.486;2023-11-19T20:56:09;17.60;;;7.10;;
80963;SDS011;70425;59.322;13.486;2023-11-19T20:58:57;15.23;;;6.43;;
80963;SDS011;70425;59.322;13.486;2023-11-19T21:01:46;12.03;;;5.87;;
80963;SDS011;70425;59.322;13.486;2023-11-19T21:04:35;15.17;;;6.20;;
80963;SDS011;70425;59.322;13.486;2023-11-19T21:07:24;15.57;;;5.80;;
80963;SDS011;70425;59.322;13.486;2023-11-19T21:10:13;12.03;;;5.77;;
80963;SDS011;70425;59.322;13.486;2023-11-19T21:13:02;11.57;;;5.20;;
80963;SDS011;70425;59.322;13.486;2023-11-19T21:15:50;14.43;;;6.53;;
80963;SDS011;70425;59.322;13.486;2023-11-19T21:18:40;18.30;;;7.40;;
80963;SDS011;70425;59.322;13.486;2023-11-19T21:21:29;12.20;;;6.23;;
80963;SDS011;70425;59.322;13.486;2023-11-19T21:26:58;14.93;;;6.23;;
80963;SDS011;70425;59.322;13.486;2023-11-19T21:29:46;16.20;;;7.00;;
80963;SDS011;70425;59.322;13.486;2023-11-19T21:32:35;15.07;;;6.37;;
80963;SDS011;70425;59.322;13.486;2023-11-19T21:35:23;17.73;;;6.07;;
80963;SDS011;70425;59.322;13.486;2023-11-19T21:38:12;16.37;;;6.50;;
80963;SDS011;70425;59.322;13.486;2023-11-19T21:41:00;14.67;;;5.47;;
80963;SDS011;70425;59.322;13.486;2023-11-19T21:43:50;14.77;;;5.80;;
80963;SDS011;70425;59.322;13.486;2023-11-19T21:46:39;13.30;;;6.10;;
80963;SDS011;70425;59.322;13.486;2023-11-19T21:49:27;17.63;;;7.23;;
80963;SDS011;70425;59.322;13.486;2023-11-19T21:52:15;15.07;;;7.13;;
80963;SDS011;70425;59.322;13.486;2023-11-19T21:55:04;13.80;;;6.20;;
80963;SDS011;70425;59.322;13.486;2023-11-19T21:57:55;16.53;;;6.63;;
80963;SDS011;70425;59.322;13.486;2023-11-19T22:00:44;14.67;;;6.00;;
80963;SDS011;70425;59.322;13.486;2023-11-19T22:06:17;15.73;;;6.50;;
80963;SDS011;70425;59.322;13.486;2023-11-19T22:09:06;16.00;;;7.00;;
80963;SDS011;70425;59.322;13.486;2023-11-19T22:11:56;13.47;;;6.53;;
80963;SDS011;70425;59.322;13.486;2023-11-19T22:14:45;14.80;;;5.67;;
80963;SDS011;70425;59.322;13.486;2023-11-19T22:17:33;14.83;;;6.43;;
80963;SDS011;70425;59.322;13.486;2023-11-19T22:20:23;12.00;;;5.70;;
80963;SDS011;70425;59.322;13.486;2023-11-19T22:23:13;13.17;;;5.93;;
80963;SDS011;70425;59.322;13.486;2023-11-19T22:26:02;14.10;;;5.53;;
80963;SDS011;70425;59.322;13.486;2023-11-19T22:28:51;8.60;;;4.07;;
80963;SDS011;70425;59.322;13.486;2023-11-19T22:31:39;12.60;;;5.70;;
80963;SDS011;70425;59.322;13.486;2023-11-19T22:34:28;11.40;;;5.53;;
80963;SDS011;70425;59.322;13.486;2023-11-19T22:37:16;13.37;;;6.07;;
80963;SDS011;70425;59.322;13.486;2023-11-19T22:40:06;11.27;;;4.53;;
80963;SDS011;70425;59.322;13.486;2023-11-19T22:42:57;9.53;;;4.20;;
80963;SDS011;70425;59.322;13.486;2023-11-19T22:45:46;11.83;;;4.47;;
80963;SDS011;70425;59.322;13.486;2023-11-19T22:48:28;12.43;;;5.47;;
80963;SDS011;70425;59.322;13.486;2023-11-19T22:51:16;11.47;;;5.67;;
80963;SDS011;70425;59.322;13.486;2023-11-19T22:54:07;11.27;;;5.33;;
80963;SDS011;70425;59.322;13.486;2023-11-19T22:56:55;14.07;;;5.03;;
80963;SDS011;70425;59.322;13.486;2023-11-19T22:59:44;11.30;;;4.97;;
80963;SDS011;70425;59.322;13.486;2023-11-19T23:02:33;14.20;;;5.20;;
80963;SDS011;70425;59.322;13.486;2023-11-19T23:05:21;10.27;;;4.87;;
80963;SDS011;70425;59.322;13.486;2023-11-19T23:08:11;11.10;;;5.23;;
80963;SDS011;70425;59.322;13.486;2023-11-19T23:10:59;9.60;;;4.37;;
80963;SDS011;70425;59.322;13.486;2023-11-19T23:13:47;18.20;;;5.50;;
80963;SDS011;70425;59.322;13.486;2023-11-19T23:16:37;8.80;;;4.27;;
80963;SDS011;70425;59.322;13.486;2023-11-19T23:19:26;11.90;;;4.53;;
80963;SDS011;70425;59.322;13.486;2023-11-19T23:22:14;10.67;;;5.00;;
80963;SDS011;70425;59.322;13.486;2023-11-19T23:25:04;12.97;;;5.43;;
80963;SDS011;70425;59.322;13.486;2023-11-19T23:27:54;13.40;;;5.23;;
80963;SDS011;70425;59.322;13.486;2023-11-19T23:30:42;10.90;;;4.83;;
80963;SDS011;70425;59.322;13.486;2023-11-19T23:33:31;9.07;;;4.47;;
80963;SDS011;70425;59.322;13.486;2023-11-19T23:36:19;9.10;;;3.97;;
80963;SDS011;70425;59.322;13.486;2023-11-19T23:39:08;14.27;;;5.50;;
80963;SDS011;70425;59.322;13.486;2023-11-19T23:41:58;12.40;;;4.87;;
80963;SDS011;70425;59.322;13.486;2023-11-19T23:44:47;11.03;;;4.90;;
80963;SDS011;70425;59.322;13.486;2023-11-19T23:47:36;7.83;;;4.10;;
80963;SDS011;70425;59.322;13.486;2023-11-19T23:50:26;11.70;;;5.23;;
80963;SDS011;70425;59.322;13.486;2023-11-19T23:53:14;8.90;;;4.90;;
80963;SDS011;70425;59.322;13.486;2023-11-19T23:56:05;10.13;;;4.70;;
80963;SDS011;70425;59.322;13.486;2023-11-19T23:58:54;12.27;;;4.90;;
